Flight Track Log - Related Links

Times and Time Zones

All times are in EDT time to prevent confusion due to time zone crossing. See the WJA1211 flight status page for this flight to view local times or setup timezone preferences in your user account.

Time Position Orientation Groundspeed Altitude Reporting Facility
EDT Latitude Longitude Course Direction KTS MPH feet Rate Location/Type
Wed 05:07:53 PM 40.7667 -73.8000 327° Northwest 205 236 2,600  Level New York TRACON
Wed 05:09:58 PM 40.8694 -73.8472 341° North 205 236 8,300 2,581 Climbing New York Center
Wed 05:10:59 PM 40.9261 -73.9103 320° Northwest 248 285 10,600 2,479 Climbing New York Center
Wed 05:11:59 PM 40.9950 -73.9850 321° Northwest 309 356 13,300 2,331 Climbing New York Center
Wed 05:13:00 PM 41.1856 -74.1790 327° Northwest  Level FlightAware Approximate
Wed 05:13:00 PM 41.0719 -74.0600 324° Northwest 342 394 15,300  Level New York Center
Wed 05:13:58 PM 41.1453 -74.1242 327° Northwest 352 405 16,100 407 Climbing New York Center
Wed 05:14:58 PM 41.2325 -74.2031 326° Northwest 347 399 16,100 885 Level New York Center
Wed 05:16:00 PM 41.3097 -74.2733 326° Northwest 347 399 17,900 2,262 Climbing New York Center
Wed 05:17:00 PM 41.3989 -74.3472 328° Northwest 352 405 20,700 3,203 Climbing New York Center
Wed 05:17:58 PM 41.4561 -74.4553 305° West 352 405 24,200 3,277 Climbing New York Center
Wed 05:18:59 PM 41.5044 -74.5742 299° West 357 411 27,200 1,884 Climbing New York Center
Wed 05:19:59 PM 41.5467 -74.6792 298° West 362 417 28,000 403 Climbing New York Center
Wed 05:20:58 PM 41.5969 -74.7986 299° West 367 422 28,000  Level New York Center
Wed 05:21:59 PM 41.6489 -74.9183 300° West 372 428 28,000  Level New York Center
Wed 05:22:58 PM 41.6989 -75.0381 299° West 372 428 28,000  Level New York Center
Wed 05:23:59 PM 41.7508 -75.1583 300° West 372 428 28,000  Level New York Center
Wed 05:24:59 PM 41.8042 -75.2842 300° West 378 435 28,000  Level New York Center
Wed 05:26:00 PM 41.8536 -75.4072 298° West 378 435 28,000  Level New York Center
Wed 05:27:00 PM 41.9050 -75.5278 300° West 378 435 28,000  Level New York Center
Wed 05:28:00 PM 41.9544 -75.6458 299° West 378 435 28,000  Level New York Center
Wed 05:28:58 PM 42.0114 -75.7783 300° West 378 435 28,000  Level New York Center
Wed 05:29:59 PM 42.0508 -75.8764 298° West 378 435 28,000  Level New York Center
Wed 05:31:00 PM 42.1036 -76.0089 298° West 373 429 28,000  Level New York Center
Wed 05:31:57 PM 42.1544 -76.1278 300° West 373 429 28,000  Level New York Center
Wed 05:32:39 PM 42.1861 -76.2278 293° West 379 436 28,000  Level Cleveland Center
Wed 05:33:39 PM 42.2286 -76.3597 294° West 397 457 28,000  Level Cleveland Center
Wed 05:34:39 PM 42.2708 -76.4917 293° West 391 450 28,000  Level Cleveland Center
Wed 05:35:39 PM 42.3108 -76.6211 293° West 386 444 28,000  Level Cleveland Center
Wed 05:36:39 PM 42.3528 -76.7533 293° West 386 444 28,000  Level Cleveland Center
Wed 05:37:39 PM 42.3947 -76.8828 294° West 386 444 28,000  Level Cleveland Center
Wed 05:38:39 PM 42.4361 -77.0128 293° West 386 444 28,000  Level Cleveland Center
Wed 05:39:39 PM 42.4756 -77.1400 293° West 386 444 28,000  Level Cleveland Center
Wed 05:40:39 PM 42.5169 -77.2731 293° West 386 444 28,000  Level Cleveland Center
Wed 05:41:39 PM 42.5561 -77.4036 292° West 386 444 28,000  Level Cleveland Center
Wed 05:42:39 PM 42.5972 -77.5369 293° West 381 438 28,000  Level Cleveland Center
Wed 05:43:38 PM 42.6381 -77.6703 293° West 387 445 28,000  Level Cleveland Center
Wed 05:44:39 PM 42.6789 -77.8042 293° West 387 445 28,000  Level Cleveland Center
Wed 05:45:39 PM 42.7153 -77.9239 293° West 387 445 28,000  Level Cleveland Center
Wed 05:46:39 PM 42.7558 -78.0608 292° West 387 445 28,000  Level Cleveland Center
Wed 05:47:39 PM 42.7961 -78.1922 293° West 387 445 28,000 -350 Level Cleveland Center
Wed 05:48:39 PM 42.8361 -78.3239 293° West 387 445 27,300 -857 Descending Cleveland Center
Wed 05:49:38 PM 42.8719 -78.4528 291° West 382 440 26,300 -1,000 Descending Cleveland Center
Wed 05:50:39 PM 42.9097 -78.5792 292° West 369 425 25,300 -992 Descending Cleveland Center
Wed 05:51:39 PM 42.9575 -78.6967 299° West 364 419 24,300 -2,188 Descending Cleveland Center
Wed 05:53:51 PM 43.0833 -78.9333 306° West 350 403 18,300 -2,625 Descending Toronto Center
Wed 05:54:51 PM 43.1333 -79.0333 304° West 350 403 15,900 -2,100 Descending Toronto Center
Wed 05:55:51 PM 43.1833 -79.1333 304° West 340 391 14,100 -1,450 Descending Toronto Center
Wed 05:56:51 PM 43.2500 -79.2500 308° West 320 368 13,000 -900 Descending Toronto Center
Wed 05:57:51 PM 43.3000 -79.3333 310° West 290 334 12,300 -1,000 Descending Toronto Center
Wed 05:58:51 PM 43.3667 -79.3500 350° North 290 334 11,000 -1,250 Descending Toronto Center
Wed 05:59:51 PM 43.4500 -79.4000 336° Northwest 290 334 9,800 -1,000 Descending Toronto Center
Wed 06:00:51 PM 43.5167 -79.4333 340° North 280 322 9,000 -750 Descending Toronto Center
Wed 06:01:51 PM 43.5667 -79.5000 316° Northwest 250 288 8,300 -950 Descending Toronto Center
Wed 06:02:51 PM 43.5500 -79.5833 255° West 230 265 7,100 -1,100 Descending Toronto Center
Wed 06:03:51 PM 43.5167 -79.6333 227° Southwest 230 265 6,100 -1,150 Descending Toronto Center
Wed 06:04:51 PM 43.4667 -79.7000 224° Southwest 220 253 4,800 -1,150 Descending Toronto Center
Wed 06:05:51 PM 43.4667 -79.7667 270° West 220 253 3,800 -900 Descending Toronto Center
Wed 06:06:51 PM 43.5333 -79.7667 360° North 200 230 3,000 -500 Descending Toronto Center
Wed 06:07:51 PM 43.5667 -79.7167 47° Northeast 200 230 2,800 -550 Descending Toronto Center
Wed 06:08:51 PM 43.6000 -79.6833 36° Northeast 170 196 1,900 -850 Descending Toronto Center
Wed 06:09:51 PM 43.6333 -79.6333 47° Northeast 130 150 1,100 -800 Descending Toronto Center

Login

Don't have an account? Register now (free) for customized features, flight alerts, and more!